KLNP Airport Information

Runway Information
Runway 06 Length 5280 ft width 100 ft
Elevation 2670 ft Threshold 0 ft Heading 56
Runway 24 Length 5280 ft Width 100 ft
Elevation 2684 ft Threshold 0 ft Heading 236
Airport Frequencies
Type AWOS Name AWOS 3 Frequency 118.6 MHZ
Type CNTR Name INDIANAPOL Frequency 126.57 MHZ
Type UNIC Name CTAF/UNICO Frequency 123 MHZ
Airport Navaids
Airport Weather Information & NOTAM
ADDS - METARS form results

(1845 UTC 22 September 2021)
Data provider http://aviationweather.gov/metar/data/
 
METAR text: KLNP 221835Z AUTO 19004KT 7SM -RA SCT009 BKN040 OVC047 12/11 A2998 RMK AO2 P0001
Conditions at: KLNP (WISE/LONESOME PI, VA, US) observed 1835 UTC 22 September 2021
Temperature: 12.0°C (54°F)
Dewpoint: 11.0°C (52°F) [RH = 94%]
Pressure (altimeter): 29.98 inches Hg (1015.3 mb)
Winds: from the S (190 degrees) at 5 MPH (4 knots; 2.1 m/s)
Visibility: 7 miles (11 km)
Ceiling: 4000 feet AGL
Clouds: scattered clouds at 900 feet AGL
broken clouds at 4000 feet AGL
overcast cloud deck at 4700 feet AGL
Weather: -RA  (light rain)

METAR text: KLNP 221815Z AUTO 24006KT 10SM -RA SCT036 OVC048 12/11 A3000 RMK AO2
Conditions at: KLNP (WISE/LONESOME PI, VA, US) observed 1815 UTC 22 September 2021
Temperature: 12.0°C (54°F)
Dewpoint: 11.0°C (52°F) [RH = 94%]
Pressure (altimeter): 30.00 inches Hg (1016.0 mb)
Winds: from the WSW (240 degrees) at 7 MPH (6 knots; 3.1 m/s)
Visibility: 10 or more miles (16+ km)
Ceiling: 4800 feet AGL
Clouds: scattered clouds at 3600 feet AGL
overcast cloud deck at 4800 feet AGL
Weather: -RA  (light rain)

METAR text: KLNP 221755Z AUTO 25005KT 10SM OVC048 12/11 A3000 RMK AO2 P0004
Conditions at: KLNP (WISE/LONESOME PI, VA, US) observed 1755 UTC 22 September 2021
Temperature: 12.0°C (54°F)
Dewpoint: 11.0°C (52°F) [RH = 94%]
Pressure (altimeter): 30.00 inches Hg (1016.0 mb)
Winds: from the WSW (250 degrees) at 6 MPH (5 knots; 2.6 m/s)
Visibility: 10 or more miles (16+ km)
Ceiling: 4800 feet AGL
Clouds: overcast cloud deck at 4800 feet AGL
Weather: automated observation with no human augmentation;
there may or may not be significant weather present at this time